ADDS METAR Data INFO
IDs: Format: Raw Decoded Include TAF

Data at: 1237 UTC 22 Feb 2018

PAGK 221153Z AUTO 00000KT 10SM CLR M18/M19 A3017 RMK AO2 SLP274 I6000 T11831194 11106 21189 56024 TSNO $
PAGK 221053Z AUTO 27003KT 10SM CLR M16/M17 A3019 RMK AO2 SLP280 I1000 T11611172 TSNO $
PAGK 220953Z AUTO 00000KT 10SM FEW090 M16/M18 A3021 RMK AO2 SLP289 T11611178 TSNO $
PAGK 220853Z AUTO 00000KT 10SM CLR M14/M15 A3024 RMK AO2 SLP298 T11391150 411061200 56024 TSNO $
PAGK 220753Z AUTO 00000KT 10SM FEW080 OVC100 M13/M14 A3025 RMK AO2 SLP302 T11281139 TSNO $
PAGK 220653Z AUTO 11003KT 10SM OVC070 M11/M12 A3030 RMK AO2 SLP315 T11111122 TSNO $
PAGK 220553Z AUTO 00000KT 10SM OVC070 M11/M12 A3032 RMK AO2 SLP322 T11061122 11106 21122 56014 TSNO $
PAGK 220453Z AUTO 00000KT 10SM OVC075 M11/M12 A3033 RMK AO2 SLP327 T11111122 TSNO $
PAGK 220353Z AUTO 00000KT 10SM OVC075 M11/M13 A3034 RMK AO2 SLP330 T11111128 TSNO $
PAGK 212353Z AUTO 00000KT 10SM OVC065 M12/M13 A3041 RMK AO2 SLP355 T11171133 11111 21167 56013 TSNO
PAGK 212334Z AUTO 00000KT 5SM BR SCT008 OVC065 M11/M13 A3042 RMK AO2 T11111128 TSNO
PAGK 212317Z AUTO 00000KT 4SM BR BKN007 OVC080 M12/M13 A3043 RMK AO2 CIG 004V009 T11171133 TSNO
PAGK 212253Z AUTO 00000KT 10SM FEW003 OVC090 M12/M13 A3042 RMK AO2 SLP360 T11171128 TSNO
PAGK 212239Z AUTO 00000KT 10SM SCT004 OVC090 M13/M13 A3042 RMK AO2 T11281133 TSNO $
PAGK 212153Z AUTO 00000KT 6SM BR OVC004 M14/M15 A3042 RMK AO2 SLP361 T11391150 TSNO $
PAGK 212134Z AUTO 00000KT 6SM BR OVC005 M14/M16 A3043 RMK AO2 T11441156 TSNO $
PAGK 212115Z AUTO 05003KT 8SM OVC003 M14/M15 A3043 RMK AO2 T11391150 TSNO
PAGK 212053Z AUTO 00000KT 4SM BR OVC004 M14/M14 A3045 RMK AO2 SLP375 T11391144 58002 TSNO
PAGK 212041Z AUTO 00000KT 3SM BR OVC004 M14/M15 A3046 RMK AO2 T11391150 TSNO
PAGK 212033Z AUTO 00000KT 2 1/2SM BR OVC004 M14/M15 A3046 RMK AO2 T11391150 TSNO
PAGK 212025Z AUTO 00000KT 2 1/2SM BR OVC005 M14/M16 A3047 RMK AO2 T11391156 TSNO
PAGK 212002Z AUTO 35003KT 3SM BR OVC005 M14/M16 A3047 RMK AO2 T11441161 TSNO
PAGK 211953Z AUTO 00000KT 2 1/2SM BR OVC005 M15/M16 A3047 RMK AO2 SLP381 T11501161 TSNO
PAGK 211935Z AUTO 00000KT 2SM BR OVC005 M16/M17 A3046 RMK AO2 T11561167 TSNO
PAGK 211923Z AUTO 35003KT 2 1/2SM BR OVC004 M16/M17 A3046 RMK AO2 T11561172 TSNO
PAGK 211913Z AUTO 36003KT 3SM BR OVC004 M16/M17 A3046 RMK AO2 T11561172 TSNO
PAGK 211853Z AUTO 01003KT 2 1/2SM BR OVC004 M16/M17 A3046 RMK AO2 SLP379 T11561172 TSNO
PAGK 211809Z AUTO 35003KT 5SM BR OVC004 M17/M18 A3046 RMK AO2 T11671178 TSNO
PAGK 211753Z AUTO 36004KT 5SM BR OVC005 M17/M18 A3046 RMK AO2 SLP378 I6000 T11671183 11161 21178 58008 TSNO
PAGK 211653Z AUTO 03003KT 10SM OVC007 M17/M18 A3048 RMK AO2 SLP383 T11671183 TSNO
PAGK 211553Z AUTO 34003KT 10SM FEW002 OVC008 M17/M19 A3047 RMK AO2 CIG 006V012 SLP379 T11721189 TSNO $
PAGK 211515Z AUTO 33004KT 6SM BR OVC005 M17/M19 A3048 RMK AO2 CIG 003V007 T11721189 TSNO $
PAGK 211453Z AUTO 33003KT 10SM BKN003 M17/M19 A3048 RMK AO2 SLP379 I3000 T11721189 58002 TSNO $
PAGK 211445Z AUTO 34004KT 10SM BKN003 M17/M19 A3049 RMK AO2 T11721189 TSNO $
PAGK 211431Z AUTO 34004KT 10SM SCT003 M18/M19 A3049 RMK AO2 T11781189 TSNO $
PAGK 211353Z AUTO 01005KT 7SM OVC003 M17/M18 A3049 RMK AO2 SLP379 T11721183 TSNO $
PAGK 211334Z AUTO 36008KT 8SM OVC003 M17/M18 A3049 RMK AO2 T11671178 TSNO $
PAGK 211307Z AUTO 35004KT 10SM OVC004 M17/M17 A3050 RMK AO2 T11671172 TSNO $
PAGK 211253Z AUTO 01007KT 10SM OVC003 M16/M17 A3049 RMK AO2 SLP378 I1000 T11611172 TSNO $
PAGK 211231Z AUTO 35006KT 6SM BR OVC003 M16/M17 A3049 RMK AO2 T11611172 TSNO $
PAGK 210753Z AUTO 34003KT 10SM CLR M20/M22 A3051 RMK AO2 SLP394 T12001222 TSNO $
PAGK 210653Z AUTO 00000KT 10SM CLR M19/M21 A3054 RMK AO2 SLP401 T11891206 TSNO $
PAGK 210553Z AUTO 00000KT 10SM CLR M18/M20 A3052 RMK AO2 SLP395 I1000 I6000 T11831200 11061 21189 50011 TSNO $